Falls City, Nebraska
Current Conditions -  °F | °C
As of 11:53 AM on Friday 31 Oct 2014 (Local Time) from KFNB Reporting Station
Clear Clear  
Wind Chill: 33°   Ceiling: Unl
Heat Index: 40°   Visibility: 10mi
Dew Point: 19°   Wind: 12mph
Humidity: 43%   Direction: 360°N
Pressure: 30.54"   Gusts: 18mph
Location:  40.06°N, 95.6°W
Report Text: KFNB 311653Z AUTO 36010G16KT 10SM CLR 04/M07 A3054 RMK AO2 SLP346 T00441072
Loading
Personal Weather Stations






























Interactive Weather Map
Tropical Storm Tracking
New forecast layout! Learn more

10-Day Weather Forecast

Advertisements
Track Severe Weather on mobile